sensor_id;sensor_type;location;lat;lon;timestamp;pressure;altitude;pressure_sealevel;temperature;humidity
77023;BME280;65952;51.440;-2.054;2023-08-20T00:01:04;100616.75;;;17.84;72.07
77023;BME280;65952;51.440;-2.054;2023-08-20T00:03:30;100614.22;;;17.76;72.58
77023;BME280;65952;51.440;-2.054;2023-08-20T00:05:56;100616.94;;;17.76;72.56
77023;BME280;65952;51.440;-2.054;2023-08-20T00:08:21;100615.91;;;17.70;72.75
77023;BME280;65952;51.440;-2.054;2023-08-20T00:10:47;100629.69;;;17.68;72.66
77023;BME280;65952;51.440;-2.054;2023-08-20T00:13:12;100627.38;;;17.72;73.17
77023;BME280;65952;51.440;-2.054;2023-08-20T00:15:38;100634.50;;;17.66;73.02
77023;BME280;65952;51.440;-2.054;2023-08-20T00:18:04;100640.53;;;17.62;73.04
77023;BME280;65952;51.440;-2.054;2023-08-20T00:20:29;100647.03;;;17.67;72.87
77023;BME280;65952;51.440;-2.054;2023-08-20T00:22:55;100639.72;;;17.68;72.81
77023;BME280;65952;51.440;-2.054;2023-08-20T00:25:21;100645.75;;;17.63;73.45
77023;BME280;65952;51.440;-2.054;2023-08-20T00:27:46;100652.84;;;17.64;73.27
77023;BME280;65952;51.440;-2.054;2023-08-20T00:30:12;100653.50;;;17.73;73.38
77023;BME280;65952;51.440;-2.054;2023-08-20T00:32:38;100656.00;;;17.75;72.95
77023;BME280;65952;51.440;-2.054;2023-08-20T00:35:03;100645.56;;;17.71;73.26
77023;BME280;65952;51.440;-2.054;2023-08-20T00:37:30;100646.00;;;17.75;73.31
77023;BME280;65952;51.440;-2.054;2023-08-20T00:39:56;100640.56;;;17.75;73.11
77023;BME280;65952;51.440;-2.054;2023-08-20T00:42:22;100646.41;;;17.79;73.18
77023;BME280;65952;51.440;-2.054;2023-08-20T00:44:47;100645.56;;;17.78;73.14
77023;BME280;65952;51.440;-2.054;2023-08-20T00:47:13;100646.59;;;17.77;73.02
77023;BME280;65952;51.440;-2.054;2023-08-20T00:49:39;100649.94;;;17.79;73.15
77023;BME280;65952;51.440;-2.054;2023-08-20T00:52:09;100650.38;;;17.83;73.14
77023;BME280;65952;51.440;-2.054;2023-08-20T00:54:35;100655.59;;;17.84;73.12
77023;BME280;65952;51.440;-2.054;2023-08-20T00:57:02;100654.34;;;17.87;73.14
77023;BME280;65952;51.440;-2.054;2023-08-20T00:59:30;100660.19;;;17.91;73.09
77023;BME280;65952;51.440;-2.054;2023-08-20T01:01:57;100662.69;;;17.92;72.92
77023;BME280;65952;51.440;-2.054;2023-08-20T01:04:22;100665.63;;;17.91;72.98
77023;BME280;65952;51.440;-2.054;2023-08-20T01:07:00;100664.19;;;17.95;72.67
77023;BME280;65952;51.440;-2.054;2023-08-20T01:12:06;100668.38;;;17.97;72.58
77023;BME280;65952;51.440;-2.054;2023-08-20T01:14:32;100672.34;;;17.95;72.59
77023;BME280;65952;51.440;-2.054;2023-08-20T01:16:57;100664.81;;;17.90;72.69
77023;BME280;65952;51.440;-2.054;2023-08-20T01:19:23;100672.09;;;17.90;72.67
77023;BME280;65952;51.440;-2.054;2023-08-20T01:24:44;100678.16;;;17.78;72.84
77023;BME280;65952;51.440;-2.054;2023-08-20T01:29:49;100666.47;;;17.91;73.27
77023;BME280;65952;51.440;-2.054;2023-08-20T01:32:15;100674.88;;;17.96;73.17
77023;BME280;65952;51.440;-2.054;2023-08-20T01:34:42;100675.69;;;17.97;72.99
77023;BME280;65952;51.440;-2.054;2023-08-20T01:37:07;100669.00;;;17.99;73.04
77023;BME280;65952;51.440;-2.054;2023-08-20T01:39:33;100681.78;;;17.99;72.92
77023;BME280;65952;51.440;-2.054;2023-08-20T01:41:58;100682.19;;;18.02;72.80
77023;BME280;65952;51.440;-2.054;2023-08-20T01:44:24;100676.75;;;18.02;72.58
77023;BME280;65952;51.440;-2.054;2023-08-20T01:46:49;100676.13;;;18.00;72.67
77023;BME280;65952;51.440;-2.054;2023-08-20T01:49:14;100664.81;;;18.03;72.50
77023;BME280;65952;51.440;-2.054;2023-08-20T01:51:40;100673.19;;;18.02;72.74
77023;BME280;65952;51.440;-2.054;2023-08-20T01:54:05;100672.34;;;18.08;72.60
77023;BME280;65952;51.440;-2.054;2023-08-20T01:56:31;100669.63;;;18.08;72.40
77023;BME280;65952;51.440;-2.054;2023-08-20T01:58:56;100665.06;;;18.09;72.44
77023;BME280;65952;51.440;-2.054;2023-08-20T02:01:22;100673.00;;;18.10;72.29
77023;BME280;65952;51.440;-2.054;2023-08-20T02:03:47;100670.88;;;18.12;72.26
77023;BME280;65952;51.440;-2.054;2023-08-20T02:06:12;100667.34;;;18.12;72.29
77023;BME280;65952;51.440;-2.054;2023-08-20T02:08:38;100686.16;;;18.13;72.54
77023;BME280;65952;51.440;-2.054;2023-08-20T02:11:04;100685.31;;;18.13;72.46
77023;BME280;65952;51.440;-2.054;2023-08-20T02:13:30;100687.41;;;18.11;72.53
77023;BME280;65952;51.440;-2.054;2023-08-20T02:16:03;100697.66;;;18.15;72.54
77023;BME280;65952;51.440;-2.054;2023-08-20T02:18:29;100694.31;;;18.13;72.49
77023;BME280;65952;51.440;-2.054;2023-08-20T02:20:55;100691.19;;;18.16;72.15
77023;BME280;65952;51.440;-2.054;2023-08-20T02:23:20;100701.41;;;18.14;72.26
77023;BME280;65952;51.440;-2.054;2023-08-20T02:25:46;100693.47;;;18.13;72.49
77023;BME280;65952;51.440;-2.054;2023-08-20T02:28:12;100691.16;;;18.10;72.60
77023;BME280;65952;51.440;-2.054;2023-08-20T02:30:42;100695.34;;;18.12;72.48
77023;BME280;65952;51.440;-2.054;2023-08-20T02:33:08;100688.25;;;18.11;72.46
77023;BME280;65952;51.440;-2.054;2023-08-20T02:35:35;100689.09;;;18.12;72.51
77023;BME280;65952;51.440;-2.054;2023-08-20T02:38:00;100690.72;;;18.06;72.57
77023;BME280;65952;51.440;-2.054;2023-08-20T02:40:25;100689.50;;;18.09;72.87
77023;BME280;65952;51.440;-2.054;2023-08-20T02:42:51;100692.41;;;18.07;72.71
77023;BME280;65952;51.440;-2.054;2023-08-20T02:45:16;100689.91;;;18.06;72.75
77023;BME280;65952;51.440;-2.054;2023-08-20T02:47:42;100695.78;;;18.09;72.94
77023;BME280;65952;51.440;-2.054;2023-08-20T02:50:07;100699.72;;;18.13;72.81
77023;BME280;65952;51.440;-2.054;2023-08-20T02:52:33;100686.56;;;18.17;72.93
77023;BME280;65952;51.440;-2.054;2023-08-20T02:54:58;100692.66;;;18.19;72.86
77023;BME280;65952;51.440;-2.054;2023-08-20T02:57:23;100687.41;;;18.24;72.43
77023;BME280;65952;51.440;-2.054;2023-08-20T02:59:50;100691.16;;;18.23;72.50
77023;BME280;65952;51.440;-2.054;2023-08-20T03:02:15;100687.59;;;18.16;72.75
77023;BME280;65952;51.440;-2.054;2023-08-20T03:04:41;100693.47;;;18.19;72.38
77023;BME280;65952;51.440;-2.054;2023-08-20T03:07:06;100704.97;;;18.22;72.25
77023;BME280;65952;51.440;-2.054;2023-08-20T03:09:31;100706.22;;;18.19;72.41
77023;BME280;65952;51.440;-2.054;2023-08-20T03:11:57;100701.22;;;18.23;72.17
77023;BME280;65952;51.440;-2.054;2023-08-20T03:14:22;100693.25;;;18.21;72.30
77023;BME280;65952;51.440;-2.054;2023-08-20T03:16:47;100692.44;;;18.21;72.26
77023;BME280;65952;51.440;-2.054;2023-08-20T03:19:15;100690.53;;;18.21;72.03
77023;BME280;65952;51.440;-2.054;2023-08-20T03:21:40;100689.91;;;18.12;72.07
77023;BME280;65952;51.440;-2.054;2023-08-20T03:24:06;100694.53;;;18.05;72.40
77023;BME280;65952;51.440;-2.054;2023-08-20T03:26:32;100699.53;;;18.01;72.61
77023;BME280;65952;51.440;-2.054;2023-08-20T03:28:57;100698.50;;;18.02;72.72
77023;BME280;65952;51.440;-2.054;2023-08-20T03:31:24;100690.97;;;17.98;73.17
77023;BME280;65952;51.440;-2.054;2023-08-20T03:33:49;100701.59;;;17.99;73.05
77023;BME280;65952;51.440;-2.054;2023-08-20T03:36:14;100694.31;;;18.00;72.95
77023;BME280;65952;51.440;-2.054;2023-08-20T03:38:40;100709.34;;;17.96;72.80
77023;BME280;65952;51.440;-2.054;2023-08-20T03:41:05;100699.91;;;17.92;73.23
77023;BME280;65952;51.440;-2.054;2023-08-20T03:43:30;100698.84;;;17.86;73.71
77023;BME280;65952;51.440;-2.054;2023-08-20T03:45:56;100707.41;;;17.90;73.63
77023;BME280;65952;51.440;-2.054;2023-08-20T03:48:21;100695.28;;;17.92;73.49
77023;BME280;65952;51.440;-2.054;2023-08-20T03:50:47;100693.25;;;17.94;73.24
77023;BME280;65952;51.440;-2.054;2023-08-20T03:53:12;100699.09;;;17.98;73.24
77023;BME280;65952;51.440;-2.054;2023-08-20T03:55:37;100694.06;;;17.95;73.35
77023;BME280;65952;51.440;-2.054;2023-08-20T03:58:03;100704.13;;;17.94;73.52
77023;BME280;65952;51.440;-2.054;2023-08-20T04:00:28;100711.59;;;17.92;73.57
77023;BME280;65952;51.440;-2.054;2023-08-20T04:02:54;100703.28;;;17.94;73.79
77023;BME280;65952;51.440;-2.054;2023-08-20T04:05:19;100707.66;;;17.95;73.55
77023;BME280;65952;51.440;-2.054;2023-08-20T04:07:44;100712.91;;;17.96;73.38
77023;BME280;65952;51.440;-2.054;2023-08-20T04:10:10;100710.63;;;18.00;73.61
77023;BME280;65952;51.440;-2.054;2023-08-20T04:12:35;100706.00;;;18.00;73.44
77023;BME280;65952;51.440;-2.054;2023-08-20T04:15:01;100719.38;;;18.02;73.53
77023;BME280;65952;51.440;-2.054;2023-08-20T04:17:26;100716.66;;;18.02;73.41
77023;BME280;65952;51.440;-2.054;2023-08-20T04:19:52;100721.66;;;17.98;73.21
77023;BME280;65952;51.440;-2.054;2023-08-20T04:22:17;100730.03;;;17.97;73.18
77023;BME280;65952;51.440;-2.054;2023-08-20T04:24:43;100728.09;;;17.91;73.16
77023;BME280;65952;51.440;-2.054;2023-08-20T04:27:08;100728.91;;;17.84;73.38
77023;BME280;65952;51.440;-2.054;2023-08-20T04:29:33;100736.44;;;17.76;73.38
77023;BME280;65952;51.440;-2.054;2023-08-20T04:31:59;100736.22;;;17.70;73.51
77023;BME280;65952;51.440;-2.054;2023-08-20T04:34:24;100729.72;;;17.65;73.59
77023;BME280;65952;51.440;-2.054;2023-08-20T04:36:49;100736.19;;;17.64;73.83
77023;BME280;65952;51.440;-2.054;2023-08-20T04:39:17;100736.81;;;17.59;73.86
77023;BME280;65952;51.440;-2.054;2023-08-20T04:41:43;100734.50;;;17.56;73.85
77023;BME280;65952;51.440;-2.054;2023-08-20T04:44:08;100739.50;;;17.59;73.94
77023;BME280;65952;51.440;-2.054;2023-08-20T04:46:33;100735.16;;;17.65;73.66
77023;BME280;65952;51.440;-2.054;2023-08-20T04:48:59;100739.97;;;17.69;73.51
77023;BME280;65952;51.440;-2.054;2023-08-20T04:51:24;100749.19;;;17.75;73.59
77023;BME280;65952;51.440;-2.054;2023-08-20T04:53:49;100751.03;;;17.68;73.68
77023;BME280;65952;51.440;-2.054;2023-08-20T04:56:15;100758.34;;;17.67;73.74
77023;BME280;65952;51.440;-2.054;2023-08-20T04:58:40;100755.81;;;17.66;73.68
77023;BME280;65952;51.440;-2.054;2023-08-20T05:01:06;100750.81;;;17.63;73.74
77023;BME280;65952;51.440;-2.054;2023-08-20T05:03:31;100762.94;;;17.67;73.46
77023;BME280;65952;51.440;-2.054;2023-08-20T05:05:57;100767.09;;;17.63;73.42
77023;BME280;65952;51.440;-2.054;2023-08-20T05:08:22;100759.75;;;17.57;73.56
77023;BME280;65952;51.440;-2.054;2023-08-20T05:10:49;100767.53;;;17.60;73.75
77023;BME280;65952;51.440;-2.054;2023-08-20T05:13:14;100768.72;;;17.50;73.56
77023;BME280;65952;51.440;-2.054;2023-08-20T05:15:40;100764.31;;;17.49;73.71
77023;BME280;65952;51.440;-2.054;2023-08-20T05:18:05;100769.16;;;17.54;73.93
77023;BME280;65952;51.440;-2.054;2023-08-20T05:20:31;100771.03;;;17.53;74.15
77023;BME280;65952;51.440;-2.054;2023-08-20T05:22:56;100782.13;;;17.59;74.22
77023;BME280;65952;51.440;-2.054;2023-08-20T05:25:22;100777.34;;;17.67;73.97
77023;BME280;65952;51.440;-2.054;2023-08-20T05:27:47;100788.44;;;17.79;73.57
77023;BME280;65952;51.440;-2.054;2023-08-20T05:30:12;100786.81;;;17.92;72.97
77023;BME280;65952;51.440;-2.054;2023-08-20T05:32:38;100788.50;;;17.93;73.00
77023;BME280;65952;51.440;-2.054;2023-08-20T05:35:03;100792.72;;;18.02;72.69
77023;BME280;65952;51.440;-2.054;2023-08-20T05:37:29;100786.25;;;18.10;72.27
77023;BME280;65952;51.440;-2.054;2023-08-20T05:39:55;100788.16;;;18.09;72.38
77023;BME280;65952;51.440;-2.054;2023-08-20T05:42:20;100799.44;;;18.13;72.26
77023;BME280;65952;51.440;-2.054;2023-08-20T05:44:45;100797.16;;;18.16;71.98
77023;BME280;65952;51.440;-2.054;2023-08-20T05:47:11;100808.25;;;18.22;71.98
77023;BME280;65952;51.440;-2.054;2023-08-20T05:49:36;100802.38;;;18.25;71.69
77023;BME280;65952;51.440;-2.054;2023-08-20T05:52:02;100817.25;;;18.29;71.37
77023;BME280;65952;51.440;-2.054;2023-08-20T05:54:27;100817.66;;;18.32;71.39
77023;BME280;65952;51.440;-2.054;2023-08-20T05:56:53;100807.00;;;18.31;71.10
77023;BME280;65952;51.440;-2.054;2023-08-20T05:59:18;100812.03;;;18.41;70.83
77023;BME280;65952;51.440;-2.054;2023-08-20T06:01:43;100809.09;;;18.42;70.58
77023;BME280;65952;51.440;-2.054;2023-08-20T06:04:09;100812.88;;;18.48;70.59
77023;BME280;65952;51.440;-2.054;2023-08-20T06:06:35;100810.16;;;18.55;70.42
77023;BME280;65952;51.440;-2.054;2023-08-20T06:09:00;100810.56;;;18.51;70.44
77023;BME280;65952;51.440;-2.054;2023-08-20T06:11:26;100816.41;;;18.55;70.29
77023;BME280;65952;51.440;-2.054;2023-08-20T06:13:51;100816.44;;;18.62;69.90
77023;BME280;65952;51.440;-2.054;2023-08-20T06:16:16;100818.13;;;18.63;69.97
77023;BME280;65952;51.440;-2.054;2023-08-20T06:18:42;100826.28;;;18.63;69.82
77023;BME280;65952;51.440;-2.054;2023-08-20T06:21:07;100826.66;;;18.60;69.90
77023;BME280;65952;51.440;-2.054;2023-08-20T06:23:32;100822.91;;;18.67;69.85
77023;BME280;65952;51.440;-2.054;2023-08-20T06:25:58;100821.47;;;18.72;69.74
77023;BME280;65952;51.440;-2.054;2023-08-20T06:28:23;100826.03;;;18.84;69.38
77023;BME280;65952;51.440;-2.054;2023-08-20T06:30:49;100829.81;;;18.90;68.88
77023;BME280;65952;51.440;-2.054;2023-08-20T06:33:15;100833.38;;;18.97;68.61
77023;BME280;65952;51.440;-2.054;2023-08-20T06:35:40;100834.63;;;19.02;68.55
77023;BME280;65952;51.440;-2.054;2023-08-20T06:38:06;100829.00;;;19.03;68.43
77023;BME280;65952;51.440;-2.054;2023-08-20T06:40:32;100834.81;;;19.07;68.43
77023;BME280;65952;51.440;-2.054;2023-08-20T06:42:58;100840.69;;;19.10;67.78
77023;BME280;65952;51.440;-2.054;2023-08-20T06:45:23;100841.72;;;19.23;67.85
77023;BME280;65952;51.440;-2.054;2023-08-20T06:47:48;100846.31;;;19.29;67.65
77023;BME280;65952;51.440;-2.054;2023-08-20T06:50:14;100834.75;;;19.40;67.68
77023;BME280;65952;51.440;-2.054;2023-08-20T06:52:39;100832.84;;;19.54;67.02
77023;BME280;65952;51.440;-2.054;2023-08-20T06:55:05;100837.19;;;19.62;66.64
77023;BME280;65952;51.440;-2.054;2023-08-20T06:57:31;100838.63;;;19.78;66.09
77023;BME280;65952;51.440;-2.054;2023-08-20T06:59:56;100834.84;;;19.79;66.45
77023;BME280;65952;51.440;-2.054;2023-08-20T07:02:22;100842.69;;;20.07;65.71
77023;BME280;65952;51.440;-2.054;2023-08-20T07:04:47;100846.03;;;20.09;64.80
77023;BME280;65952;51.440;-2.054;2023-08-20T07:07:12;100844.06;;;20.23;64.50
77023;BME280;65952;51.440;-2.054;2023-08-20T07:09:40;100849.09;;;20.26;64.44
77023;BME280;65952;51.440;-2.054;2023-08-20T07:12:05;100851.63;;;20.53;63.84
77023;BME280;65952;51.440;-2.054;2023-08-20T07:14:31;100845.38;;;21.03;61.53
77023;BME280;65952;51.440;-2.054;2023-08-20T07:16:56;100847.59;;;21.13;60.68
77023;BME280;65952;51.440;-2.054;2023-08-20T07:19:21;100859.63;;;21.05;61.10
77023;BME280;65952;51.440;-2.054;2023-08-20T07:21:47;100857.84;;;20.92;61.15
77023;BME280;65952;51.440;-2.054;2023-08-20T07:24:12;100858.50;;;21.13;60.97
77023;BME280;65952;51.440;-2.054;2023-08-20T07:26:38;100853.94;;;21.69;60.57
77023;BME280;65952;51.440;-2.054;2023-08-20T07:29:03;100849.81;;;22.28;57.82
77023;BME280;65952;51.440;-2.054;2023-08-20T07:31:32;100861.19;;;22.24;57.37
77023;BME280;65952;51.440;-2.054;2023-08-20T07:34:00;100860.72;;;21.97;57.53
77023;BME280;65952;51.440;-2.054;2023-08-20T07:36:26;100869.88;;;21.72;58.59
77023;BME280;65952;51.440;-2.054;2023-08-20T07:38:53;100871.72;;;21.53;59.34
77023;BME280;65952;51.440;-2.054;2023-08-20T07:41:19;100868.00;;;21.29;59.81
77023;BME280;65952;51.440;-2.054;2023-08-20T07:43:45;100874.94;;;20.81;61.64
77023;BME280;65952;51.440;-2.054;2023-08-20T07:46:12;100874.78;;;21.01;61.47
77023;BME280;65952;51.440;-2.054;2023-08-20T07:48:38;100879.47;;;21.38;60.08
77023;BME280;65952;51.440;-2.054;2023-08-20T07:51:04;100871.13;;;21.88;58.46
77023;BME280;65952;51.440;-2.054;2023-08-20T07:53:30;100871.13;;;22.37;57.91
77023;BME280;65952;51.440;-2.054;2023-08-20T07:55:56;100863.25;;;23.66;55.44
77023;BME280;65952;51.440;-2.054;2023-08-20T07:58:21;100875.81;;;24.03;53.82
77023;BME280;65952;51.440;-2.054;2023-08-20T08:00:47;100873.41;;;24.53;51.51
77023;BME280;65952;51.440;-2.054;2023-08-20T08:03:12;100877.41;;;24.62;49.76
77023;BME280;65952;51.440;-2.054;2023-08-20T08:05:46;100879.69;;;24.19;50.97
77023;BME280;65952;51.440;-2.054;2023-08-20T08:08:12;100885.59;;;23.99;51.96
77023;BME280;65952;51.440;-2.054;2023-08-20T08:10:37;100878.94;;;23.83;52.39
77023;BME280;65952;51.440;-2.054;2023-08-20T08:13:03;100885.13;;;23.78;52.29
77023;BME280;65952;51.440;-2.054;2023-08-20T08:15:28;100878.44;;;24.73;50.74
77023;BME280;65952;51.440;-2.054;2023-08-20T08:17:53;100886.38;;;26.04;49.85
77023;BME280;65952;51.440;-2.054;2023-08-20T08:20:19;100884.47;;;27.29;45.77
77023;BME280;65952;51.440;-2.054;2023-08-20T08:22:44;100882.78;;;28.81;41.82
77023;BME280;65952;51.440;-2.054;2023-08-20T08:25:10;100889.66;;;28.94;40.26
77023;BME280;65952;51.440;-2.054;2023-08-20T08:27:35;100890.34;;;28.01;41.66
77023;BME280;65952;51.440;-2.054;2023-08-20T08:30:00;100892.19;;;27.27;43.95
77023;BME280;65952;51.440;-2.054;2023-08-20T08:32:26;100893.78;;;28.60;42.42
77023;BME280;65952;51.440;-2.054;2023-08-20T08:34:51;100879.00;;;30.28;37.55
77023;BME280;65952;51.440;-2.054;2023-08-20T08:37:16;100883.63;;;30.38;36.74
77023;BME280;65952;51.440;-2.054;2023-08-20T08:39:42;100882.41;;;30.10;37.32
77023;BME280;65952;51.440;-2.054;2023-08-20T08:42:07;100897.44;;;31.18;35.82
77023;BME280;65952;51.440;-2.054;2023-08-20T08:44:37;100895.31;;;32.45;33.03
77023;BME280;65952;51.440;-2.054;2023-08-20T08:47:03;100899.41;;;32.99;32.96
77023;BME280;65952;51.440;-2.054;2023-08-20T08:49:33;100891.16;;;32.94;32.13
77023;BME280;65952;51.440;-2.054;2023-08-20T08:51:58;100890.28;;;33.13;32.06
77023;BME280;65952;51.440;-2.054;2023-08-20T08:54:25;100891.06;;;33.60;32.89
77023;BME280;65952;51.440;-2.054;2023-08-20T08:56:51;100889.72;;;33.85;32.81
77023;BME280;65952;51.440;-2.054;2023-08-20T08:59:16;100894.78;;;32.42;32.07
77023;BME280;65952;51.440;-2.054;2023-08-20T09:01:42;100902.41;;;31.21;34.63
77023;BME280;65952;51.440;-2.054;2023-08-20T09:04:07;100899.59;;;30.12;36.11
77023;BME280;65952;51.440;-2.054;2023-08-20T09:06:49;100902.34;;;29.21;38.14
77023;BME280;65952;51.440;-2.054;2023-08-20T09:09:16;100902.28;;;28.17;39.47
77023;BME280;65952;51.440;-2.054;2023-08-20T09:11:42;100902.06;;;28.55;40.08
77023;BME280;65952;51.440;-2.054;2023-08-20T09:14:07;100904.00;;;28.44;39.75
77023;BME280;65952;51.440;-2.054;2023-08-20T09:16:33;100913.09;;;27.71;40.60
77023;BME280;65952;51.440;-2.054;2023-08-20T09:18:59;100914.31;;;27.96;44.34
77023;BME280;65952;51.440;-2.054;2023-08-20T09:21:28;100903.19;;;29.00;39.44
77023;BME280;65952;51.440;-2.054;2023-08-20T09:23:55;100903.13;;;29.62;38.04
77023;BME280;65952;51.440;-2.054;2023-08-20T09:26:21;100907.16;;;29.91;38.57
77023;BME280;65952;51.440;-2.054;2023-08-20T09:28:47;100903.13;;;30.23;38.97
77023;BME280;65952;51.440;-2.054;2023-08-20T09:31:13;100902.94;;;30.54;36.55
77023;BME280;65952;51.440;-2.054;2023-08-20T09:33:52;100894.19;;;31.05;35.48
77023;BME280;65952;51.440;-2.054;2023-08-20T09:36:29;100912.09;;;31.48;35.09
77023;BME280;65952;51.440;-2.054;2023-08-20T09:38:55;100908.91;;;31.35;33.79
77023;BME280;65952;51.440;-2.054;2023-08-20T09:41:21;100899.88;;;31.49;34.47
77023;BME280;65952;51.440;-2.054;2023-08-20T09:43:48;100898.53;;;31.70;36.28
77023;BME280;65952;51.440;-2.054;2023-08-20T09:46:19;100901.13;;;32.62;33.74
77023;BME280;65952;51.440;-2.054;2023-08-20T09:48:48;100903.44;;;32.93;31.51
77023;BME280;65952;51.440;-2.054;2023-08-20T09:51:19;100902.81;;;32.25;32.02
77023;BME280;65952;51.440;-2.054;2023-08-20T09:53:55;100892.00;;;32.42;33.42
77023;BME280;65952;51.440;-2.054;2023-08-20T09:56:29;100903.78;;;31.72;33.32
77023;BME280;65952;51.440;-2.054;2023-08-20T09:58:57;100889.22;;;31.32;33.15
77023;BME280;65952;51.440;-2.054;2023-08-20T10:01:23;100897.25;;;31.33;33.10
77023;BME280;65952;51.440;-2.054;2023-08-20T10:03:49;100895.91;;;31.01;33.82
77023;BME280;65952;51.440;-2.054;2023-08-20T10:06:14;100897.59;;;30.97;34.48
77023;BME280;65952;51.440;-2.054;2023-08-20T10:08:41;100886.75;;;31.01;34.35
77023;BME280;65952;51.440;-2.054;2023-08-20T10:11:06;100886.63;;;31.16;33.56
77023;BME280;65952;51.440;-2.054;2023-08-20T10:13:31;100883.81;;;31.21;34.36
77023;BME280;65952;51.440;-2.054;2023-08-20T10:15:57;100884.25;;;30.30;34.51
77023;BME280;65952;51.440;-2.054;2023-08-20T10:18:23;100895.75;;;28.75;37.64
77023;BME280;65952;51.440;-2.054;2023-08-20T10:20:51;100892.84;;;28.03;39.35
77023;BME280;65952;51.440;-2.054;2023-08-20T10:23:20;100890.84;;;27.93;39.88
77023;BME280;65952;51.440;-2.054;2023-08-20T10:25:48;100886.22;;;27.46;40.57
77023;BME280;65952;51.440;-2.054;2023-08-20T10:28:25;100885.81;;;27.74;40.34
77023;BME280;65952;51.440;-2.054;2023-08-20T10:31:07;100889.09;;;28.50;39.55
77023;BME280;65952;51.440;-2.054;2023-08-20T10:33:55;100890.19;;;28.60;38.43
77023;BME280;65952;51.440;-2.054;2023-08-20T10:36:21;100886.63;;;29.00;38.27
77023;BME280;65952;51.440;-2.054;2023-08-20T10:38:55;100897.38;;;28.61;38.61
77023;BME280;65952;51.440;-2.054;2023-08-20T10:41:28;100890.72;;;28.46;38.83
77023;BME280;65952;51.440;-2.054;2023-08-20T10:43:58;100881.44;;;27.79;40.02
77023;BME280;65952;51.440;-2.054;2023-08-20T10:46:24;100889.59;;;27.53;42.18
77023;BME280;65952;51.440;-2.054;2023-08-20T10:48:56;100880.53;;;27.63;40.91
77023;BME280;65952;51.440;-2.054;2023-08-20T10:51:36;100892.75;;;27.34;41.05
77023;BME280;65952;51.440;-2.054;2023-08-20T10:56:44;100882.72;;;27.18;42.63
77023;BME280;65952;51.440;-2.054;2023-08-20T10:59:25;100890.16;;;27.12;41.32
77023;BME280;65952;51.440;-2.054;2023-08-20T11:01:52;100890.28;;;26.63;42.70
77023;BME280;65952;51.440;-2.054;2023-08-20T11:04:23;100890.97;;;26.20;43.66
77023;BME280;65952;51.440;-2.054;2023-08-20T11:06:56;100886.38;;;26.04;43.98
77023;BME280;65952;51.440;-2.054;2023-08-20T11:09:23;100887.53;;;26.08;44.59
77023;BME280;65952;51.440;-2.054;2023-08-20T11:11:50;100884.19;;;26.06;44.23
77023;BME280;65952;51.440;-2.054;2023-08-20T11:14:18;100882.41;;;26.44;44.24
77023;BME280;65952;51.440;-2.054;2023-08-20T11:16:45;100873.66;;;26.52;43.23
77023;BME280;65952;51.440;-2.054;2023-08-20T11:19:11;100882.69;;;26.48;43.97
77023;BME280;65952;51.440;-2.054;2023-08-20T11:21:41;100882.59;;;26.97;42.92
77023;BME280;65952;51.440;-2.054;2023-08-20T11:24:07;100875.69;;;27.37;40.90
77023;BME280;65952;51.440;-2.054;2023-08-20T11:26:34;100875.69;;;28.01;41.10
77023;BME280;65952;51.440;-2.054;2023-08-20T11:29:09;100874.16;;;28.41;38.91
77023;BME280;65952;51.440;-2.054;2023-08-20T11:31:38;100876.09;;;28.51;38.10
77023;BME280;65952;51.440;-2.054;2023-08-20T11:34:04;100869.75;;;28.61;39.15
77023;BME280;65952;51.440;-2.054;2023-08-20T11:36:31;100875.31;;;28.86;38.60
77023;BME280;65952;51.440;-2.054;2023-08-20T11:38:57;100870.34;;;28.89;38.30
77023;BME280;65952;51.440;-2.054;2023-08-20T11:41:23;100858.72;;;28.86;38.63
77023;BME280;65952;51.440;-2.054;2023-08-20T11:43:50;100854.06;;;28.82;38.56
77023;BME280;65952;51.440;-2.054;2023-08-20T11:46:20;100851.56;;;28.85;38.77
77023;BME280;65952;51.440;-2.054;2023-08-20T11:49:05;100848.19;;;29.09;37.24
77023;BME280;65952;51.440;-2.054;2023-08-20T11:51:39;100849.03;;;28.63;37.32
77023;BME280;65952;51.440;-2.054;2023-08-20T11:54:09;100855.94;;;28.40;38.39
77023;BME280;65952;51.440;-2.054;2023-08-20T11:56:35;100863.63;;;28.22;38.36
77023;BME280;65952;51.440;-2.054;2023-08-20T11:59:01;100853.44;;;28.54;38.57
77023;BME280;65952;51.440;-2.054;2023-08-20T12:01:31;100866.09;;;28.14;37.97
77023;BME280;65952;51.440;-2.054;2023-08-20T12:04:02;100864.19;;;27.46;39.16
77023;BME280;65952;51.440;-2.054;2023-08-20T12:06:29;100866.31;;;27.92;39.63
77023;BME280;65952;51.440;-2.054;2023-08-20T12:08:56;100859.09;;;27.85;39.58
77023;BME280;65952;51.440;-2.054;2023-08-20T12:11:29;100867.91;;;27.77;40.69
77023;BME280;65952;51.440;-2.054;2023-08-20T12:13:56;100866.94;;;28.04;39.29
77023;BME280;65952;51.440;-2.054;2023-08-20T12:16:22;100864.06;;;27.88;39.21
77023;BME280;65952;51.440;-2.054;2023-08-20T12:18:48;100869.16;;;28.22;38.33
77023;BME280;65952;51.440;-2.054;2023-08-20T12:21:14;100858.16;;;28.64;38.47
77023;BME280;65952;51.440;-2.054;2023-08-20T12:23:40;100850.44;;;28.97;37.80
77023;BME280;65952;51.440;-2.054;2023-08-20T12:26:06;100858.13;;;29.36;36.60
77023;BME280;65952;51.440;-2.054;2023-08-20T12:28:33;100859.16;;;29.50;36.02
77023;BME280;65952;51.440;-2.054;2023-08-20T12:30:58;100847.94;;;29.06;35.12
77023;BME280;65952;51.440;-2.054;2023-08-20T12:33:24;100856.50;;;28.99;35.95
77023;BME280;65952;51.440;-2.054;2023-08-20T12:35:49;100861.75;;;28.64;36.29
77023;BME280;65952;51.440;-2.054;2023-08-20T12:38:15;100866.94;;;28.19;37.38
77023;BME280;65952;51.440;-2.054;2023-08-20T12:40:40;100867.69;;;27.89;39.31
77023;BME280;65952;51.440;-2.054;2023-08-20T12:43:06;100860.75;;;27.76;38.37
77023;BME280;65952;51.440;-2.054;2023-08-20T12:45:31;100858.78;;;27.66;39.37
77023;BME280;65952;51.440;-2.054;2023-08-20T12:47:56;100867.34;;;27.70;40.42